createdAt,value
2023-03-05T00:01:07.422Z,28.61
2023-03-05T00:03:35.797Z,28.90
2023-03-05T00:06:04.773Z,28.83
2023-03-05T00:08:35.192Z,28.47
2023-03-05T00:11:05.533Z,28.43
2023-03-05T00:13:34.475Z,28.77
2023-03-05T00:16:04.324Z,28.55
2023-03-05T00:18:32.655Z,28.95
2023-03-05T00:21:01.200Z,28.85
2023-03-05T00:23:29.657Z,28.92
2023-03-05T00:26:02.591Z,28.56
2023-03-05T00:28:31.004Z,28.99
2023-03-05T00:31:02.188Z,28.73
2023-03-05T00:33:30.559Z,28.96
2023-03-05T00:36:01.860Z,29.17
2023-03-05T00:38:30.189Z,29.09
2023-03-05T00:41:00.164Z,29.06
2023-03-05T00:43:28.614Z,29.31
2023-03-05T00:45:57.221Z,29.42
2023-03-05T00:48:25.719Z,29.06
2023-03-05T00:50:54.557Z,28.56
2023-03-05T00:53:23.312Z,27.77
2023-03-05T00:55:51.798Z,27.05
2023-03-05T00:58:21.785Z,26.45
2023-03-05T01:00:51.231Z,25.85
2023-03-05T01:03:19.715Z,25.84
2023-03-05T01:05:48.236Z,25.62
2023-03-05T01:08:16.999Z,25.72
2023-03-05T01:10:45.662Z,25.24
2023-03-05T01:13:13.926Z,25.11
2023-03-05T01:15:43.990Z,24.86
2023-03-05T01:18:12.401Z,24.47
2023-03-05T01:20:41.026Z,24.07
2023-03-05T01:23:09.477Z,23.96
2023-03-05T01:25:38.328Z,23.75
2023-03-05T01:28:07.176Z,23.85
2023-03-05T01:30:36.182Z,24.01
2023-03-05T01:33:05.904Z,24.11
2023-03-05T01:35:34.353Z,24.37
2023-03-05T01:38:02.740Z,24.46
2023-03-05T01:40:32.610Z,24.46
2023-03-05T01:43:02.944Z,24.40
2023-03-05T01:45:32.557Z,24.39
2023-03-05T01:48:00.789Z,24.57
2023-03-05T01:50:30.632Z,24.56
2023-03-05T01:53:01.673Z,24.72
2023-03-05T01:55:30.369Z,24.01
2023-03-05T01:58:02.144Z,24.54
2023-03-05T02:00:33.759Z,24.89
2023-03-05T02:03:02.677Z,24.18
2023-03-05T02:05:34.577Z,24.81
2023-03-05T02:08:05.130Z,25.01
2023-03-05T02:10:36.025Z,25.12
2023-03-05T02:13:07.507Z,25.29
2023-03-05T02:15:36.021Z,25.48
2023-03-05T02:18:04.208Z,25.63
2023-03-05T02:20:45.643Z,25.10
2023-03-05T02:23:15.845Z,25.38
2023-03-05T02:25:44.378Z,25.76
2023-03-05T02:28:16.333Z,25.70
2023-03-05T02:30:44.897Z,25.81
2023-03-05T02:33:15.215Z,25.81
2023-03-05T02:35:44.644Z,25.84
2023-03-05T02:38:13.009Z,25.77
2023-03-05T02:40:43.037Z,25.80
2023-03-05T02:43:11.772Z,26.06
2023-03-05T02:45:40.358Z,26.24
2023-03-05T02:48:08.694Z,26.39
2023-03-05T02:50:39.820Z,26.42
2023-03-05T02:53:08.018Z,26.45
2023-03-05T02:55:36.731Z,26.43
2023-03-05T02:58:06.280Z,26.37
2023-03-05T03:00:34.786Z,26.59
2023-03-05T03:03:02.936Z,26.74
2023-03-05T03:05:31.511Z,26.70
2023-03-05T03:08:00.141Z,26.68
2023-03-05T03:10:28.681Z,26.69
2023-03-05T03:12:56.851Z,26.56
2023-03-05T03:15:26.906Z,26.72
2023-03-05T03:17:55.740Z,26.86
2023-03-05T03:20:24.850Z,27.04
2023-03-05T03:22:53.768Z,27.05
2023-03-05T03:25:24.147Z,26.94
2023-03-05T03:27:52.350Z,27.03
2023-03-05T03:30:21.291Z,27.08
2023-03-05T03:32:52.146Z,27.17
2023-03-05T03:35:20.740Z,27.49
2023-03-05T03:37:49.186Z,27.76
2023-03-05T03:40:18.200Z,28.24
2023-03-05T03:42:46.478Z,28.81
2023-03-05T03:45:15.169Z,29.18
2023-03-05T03:47:43.459Z,29.92
2023-03-05T03:50:13.972Z,30.06
2023-03-05T03:52:42.187Z,30.18
2023-03-05T03:55:12.029Z,30.29
2023-03-05T03:57:40.274Z,30.50
2023-03-05T04:00:10.446Z,30.72
2023-03-05T04:02:39.046Z,31.40
2023-03-05T04:05:08.872Z,31.26
2023-03-05T04:07:38.460Z,31.74
2023-03-05T04:10:07.608Z,31.97
2023-03-05T04:12:35.895Z,31.72
2023-03-05T04:15:05.915Z,31.85
2023-03-05T04:17:34.424Z,31.74
2023-03-05T04:20:05.611Z,31.79
2023-03-05T04:22:33.857Z,31.58
2023-03-05T04:25:06.603Z,31.78
2023-03-05T04:27:34.979Z,31.58
2023-03-05T04:30:03.506Z,31.65
2023-03-05T04:32:33.316Z,31.54
2023-03-05T04:35:01.901Z,31.29
2023-03-05T04:37:30.154Z,31.02
2023-03-05T04:39:58.712Z,31.02
2023-03-05T04:42:28.316Z,30.90
2023-03-05T04:44:56.922Z,30.91
2023-03-05T04:47:25.197Z,30.62
2023-03-05T04:49:56.297Z,30.42
2023-03-05T04:52:24.478Z,29.92
2023-03-05T04:54:54.452Z,30.03
2023-03-05T04:57:23.823Z,29.73
2023-03-05T04:59:54.492Z,29.49
2023-03-05T05:02:22.661Z,29.62
2023-03-05T05:04:54.073Z,29.49
2023-03-05T05:07:22.355Z,28.74
2023-03-05T05:09:50.935Z,29.63
2023-03-05T05:12:19.088Z,29.58
2023-03-05T05:14:47.548Z,29.75
2023-03-05T05:17:17.302Z,29.69
2023-03-05T05:19:45.754Z,29.86
2023-03-05T05:22:13.949Z,29.96
2023-03-05T05:24:42.559Z,29.71
2023-03-05T05:27:10.997Z,29.58
2023-03-05T05:29:39.599Z,29.24
2023-03-05T05:32:08.133Z,29.25
2023-03-05T05:34:38.228Z,29.12
2023-03-05T05:37:06.668Z,29.30
2023-03-05T05:39:35.106Z,29.20
2023-03-05T05:42:03.387Z,28.97
2023-03-05T05:44:31.905Z,29.02
2023-03-05T05:47:00.082Z,29.05
2023-03-05T05:49:28.616Z,28.93
2023-03-05T05:51:59.341Z,28.84
2023-03-05T05:54:27.961Z,28.93
2023-03-05T05:56:56.305Z,29.13
2023-03-05T05:59:24.875Z,28.85
2023-03-05T06:01:53.206Z,29.59
2023-03-05T06:04:21.987Z,29.52
2023-03-05T06:06:50.350Z,29.63
2023-03-05T06:09:20.171Z,29.57
2023-03-05T06:11:48.498Z,29.75
2023-03-05T06:14:17.283Z,29.77
2023-03-05T06:16:45.709Z,29.99
2023-03-05T06:19:14.789Z,29.80
2023-03-05T06:21:43.645Z,29.87
2023-03-05T06:24:12.416Z,30.12
2023-03-05T06:26:41.976Z,30.02
2023-03-05T06:29:10.718Z,30.23
2023-03-05T06:31:40.460Z,30.33
2023-03-05T06:34:08.986Z,30.40
2023-03-05T06:36:37.302Z,30.56
2023-03-05T06:39:05.923Z,30.76
2023-03-05T06:41:34.401Z,31.07
2023-03-05T06:44:04.870Z,30.79
2023-03-05T06:46:36.274Z,30.66
2023-03-05T06:49:05.412Z,30.71
2023-03-05T06:51:35.808Z,30.66
2023-03-05T06:54:06.815Z,30.68
2023-03-05T06:56:37.888Z,30.45
2023-03-05T06:59:07.628Z,29.81
2023-03-05T07:01:36.102Z,30.80
2023-03-05T07:04:05.005Z,31.10
2023-03-05T07:06:34.528Z,31.01
2023-03-05T07:09:04.136Z,30.89
2023-03-05T07:11:35.299Z,30.89
2023-03-05T07:14:04.304Z,31.26
2023-03-05T07:16:35.247Z,31.02
2023-03-05T07:19:04.942Z,30.26
2023-03-05T07:21:36.068Z,31.07
2023-03-05T07:24:06.883Z,31.22
2023-03-05T07:26:35.186Z,31.07
2023-03-05T07:29:03.739Z,31.13
2023-03-05T07:31:33.832Z,30.77
2023-03-05T07:34:03.795Z,30.71
2023-03-05T07:36:32.193Z,30.86
2023-03-05T07:39:00.653Z,30.38
2023-03-05T07:41:28.917Z,30.13
2023-03-05T07:43:57.675Z,29.86
2023-03-05T07:46:29.406Z,29.81
2023-03-05T07:48:59.888Z,29.45
2023-03-05T07:51:29.164Z,29.52
2023-03-05T07:53:59.106Z,29.39
2023-03-05T07:56:31.884Z,29.26
2023-03-05T07:59:00.833Z,29.38
2023-03-05T08:01:29.039Z,29.39
2023-03-05T08:03:59.056Z,29.47
2023-03-05T08:06:27.358Z,29.13
2023-03-05T08:08:55.750Z,28.69
2023-03-05T08:11:24.198Z,28.70
2023-03-05T08:13:52.412Z,28.65
2023-03-05T08:16:22.396Z,28.36
2023-03-05T08:18:50.684Z,28.53
2023-03-05T08:21:22.918Z,28.16
2023-03-05T08:23:51.444Z,28.23
2023-03-05T08:26:22.553Z,28.39
2023-03-05T08:28:51.016Z,28.58
2023-03-05T08:31:22.304Z,28.56
2023-03-05T08:33:50.765Z,28.60
2023-03-05T08:36:20.817Z,28.56
2023-03-05T08:38:49.091Z,28.47
2023-03-05T08:41:22.483Z,28.44
2023-03-05T08:43:50.685Z,28.61
2023-03-05T08:46:19.238Z,28.46
2023-03-05T08:48:47.469Z,28.47
2023-03-05T08:51:17.647Z,28.43
2023-03-05T08:53:47.873Z,28.32
2023-03-05T08:56:16.582Z,28.44
2023-03-05T08:58:46.280Z,28.75
2023-03-05T09:01:15.300Z,28.91
2023-03-05T09:03:43.617Z,29.08
2023-03-05T09:06:13.519Z,28.90
2023-03-05T09:08:41.914Z,29.00
2023-03-05T09:11:13.499Z,28.75
2023-03-05T09:13:41.612Z,27.63
2023-03-05T09:16:12.979Z,28.10
2023-03-05T09:18:41.439Z,28.52
2023-03-05T09:21:11.908Z,28.72
2023-03-05T09:23:40.494Z,28.84
2023-03-05T09:26:13.308Z,29.27
2023-03-05T09:28:41.907Z,29.71
2023-03-05T09:31:11.366Z,30.16
2023-03-05T09:33:40.352Z,30.90
2023-03-05T09:36:19.052Z,30.46
2023-03-05T09:38:47.333Z,31.44
2023-03-05T09:41:23.300Z,31.58
2023-03-05T09:43:58.136Z,31.63
2023-03-05T09:46:35.575Z,32.28
2023-03-05T09:49:12.780Z,32.01
2023-03-05T09:51:43.123Z,32.70
2023-03-05T09:54:15.330Z,32.61
2023-03-05T09:56:48.910Z,32.69
2023-03-05T09:59:23.762Z,32.99
2023-03-05T10:01:54.310Z,33.58
2023-03-05T10:04:25.836Z,33.76
2023-03-05T10:06:57.237Z,33.60
2023-03-05T10:09:38.009Z,33.42
2023-03-05T10:12:12.076Z,33.85
2023-03-05T10:14:41.894Z,34.03
2023-03-05T10:17:36.491Z,33.44
2023-03-05T10:20:37.284Z,33.87
2023-03-05T10:23:15.680Z,34.18
2023-03-05T10:25:53.715Z,34.23
2023-03-05T10:28:28.913Z,34.17
2023-03-05T10:31:11.234Z,34.13
2023-03-05T10:33:45.261Z,33.95
2023-03-05T10:36:32.292Z,33.11
2023-03-05T10:39:36.470Z,32.21
2023-03-05T10:42:09.814Z,32.25
2023-03-05T10:44:43.564Z,31.60
2023-03-05T10:47:17.421Z,31.53
2023-03-05T10:49:51.341Z,31.51
2023-03-05T10:52:21.459Z,31.95
2023-03-05T10:54:50.917Z,31.76
2023-03-05T10:57:21.487Z,31.84
2023-03-05T10:59:53.696Z,31.67
2023-03-05T11:02:23.371Z,31.60
2023-03-05T11:04:53.638Z,31.46
2023-03-05T11:07:37.514Z,30.49
2023-03-05T11:10:15.545Z,31.01
2023-03-05T11:12:44.389Z,31.01
2023-03-05T11:15:29.120Z,30.47
2023-03-05T11:18:19.326Z,30.48
2023-03-05T11:20:48.307Z,30.87
2023-03-05T11:23:17.875Z,30.22
2023-03-05T11:25:55.684Z,29.49
2023-03-05T11:28:32.908Z,29.75
2023-03-05T11:31:08.725Z,29.17
2023-03-05T11:33:38.186Z,29.39
2023-03-05T11:36:24.870Z,28.69
2023-03-05T11:38:57.690Z,28.58
2023-03-05T11:41:29.970Z,27.44
2023-03-05T11:43:58.560Z,27.13
2023-03-05T11:46:29.198Z,26.60
2023-03-05T11:48:57.652Z,26.60
2023-03-05T11:51:28.339Z,25.29
2023-03-05T11:54:00.924Z,25.24
2023-03-05T11:56:32.605Z,24.60
2023-03-05T11:59:02.272Z,23.82
2023-03-05T12:01:34.452Z,24.15
2023-03-05T12:04:03.033Z,24.59
2023-03-05T12:06:36.834Z,24.25
2023-03-05T12:09:09.268Z,24.41
2023-03-05T12:11:38.216Z,24.32
2023-03-05T12:14:12.205Z,24.26
2023-03-05T12:16:43.885Z,24.57
2023-03-05T12:19:35.785Z,24.32
2023-03-05T12:22:05.205Z,25.02
2023-03-05T12:24:39.565Z,24.61
2023-03-05T12:27:16.651Z,24.50
2023-03-05T12:29:51.926Z,23.98
2023-03-05T12:32:54.167Z,22.57
2023-03-05T12:35:29.643Z,22.16
2023-03-05T12:38:01.800Z,22.67
2023-03-05T12:40:35.088Z,22.60
2023-03-05T12:43:04.000Z,22.47
2023-03-05T12:45:37.759Z,22.44
2023-03-05T12:48:54.799Z,21.51
2023-03-05T12:51:33.174Z,21.36
2023-03-05T12:54:31.340Z,20.98
2023-03-05T12:57:01.167Z,20.93
2023-03-05T12:59:36.488Z,20.97
2023-03-05T13:02:06.224Z,20.92
2023-03-05T13:04:38.337Z,20.82
2023-03-05T13:07:15.925Z,20.37
2023-03-05T13:09:53.585Z,20.55
2023-03-05T13:12:22.096Z,20.97
2023-03-05T13:14:58.817Z,20.48
2023-03-05T13:17:39.389Z,20.40
2023-03-05T13:20:35.089Z,20.50
2023-03-05T13:23:16.189Z,21.43
2023-03-05T13:25:45.086Z,22.09
2023-03-05T13:28:15.455Z,22.30
2023-03-05T13:30:46.735Z,22.48
2023-03-05T13:33:19.113Z,22.68
2023-03-05T13:35:48.408Z,23.07
2023-03-05T13:38:24.868Z,22.53
2023-03-05T13:41:07.709Z,22.52
2023-03-05T13:43:36.161Z,22.78
2023-03-05T13:46:04.884Z,22.78
2023-03-05T13:48:33.090Z,23.04
2023-03-05T13:51:01.608Z,23.17
2023-03-05T13:53:32.287Z,22.88
2023-03-05T13:56:04.107Z,22.79
2023-03-05T13:58:48.606Z,22.53
2023-03-05T14:01:30.022Z,22.84
2023-03-05T14:04:00.832Z,23.22
2023-03-05T14:06:31.167Z,23.17
2023-03-05T14:09:07.702Z,22.64
2023-03-05T14:11:37.100Z,22.95
2023-03-05T14:14:09.023Z,22.72
2023-03-05T14:16:38.052Z,23.01
2023-03-05T14:19:07.345Z,23.07
2023-03-05T14:21:48.412Z,23.10
2023-03-05T14:24:22.851Z,23.61
2023-03-05T14:26:52.893Z,24.47
2023-03-05T14:29:24.288Z,24.97
2023-03-05T14:31:54.678Z,24.98
2023-03-05T14:34:27.352Z,25.16
2023-03-05T14:36:58.453Z,25.50
2023-03-05T14:39:43.947Z,25.69
2023-03-05T14:42:27.358Z,25.56
2023-03-05T14:44:57.095Z,26.07
2023-03-05T14:47:25.894Z,25.79
2023-03-05T14:49:54.625Z,25.72
2023-03-05T14:52:24.829Z,25.57
2023-03-05T14:54:55.313Z,25.56
2023-03-05T14:57:26.713Z,25.93
2023-03-05T14:59:55.761Z,25.79
2023-03-05T15:02:25.855Z,25.66
2023-03-05T15:04:54.492Z,25.70
2023-03-05T15:07:27.379Z,25.29
2023-03-05T15:09:57.354Z,25.53
2023-03-05T15:12:25.949Z,25.91
2023-03-05T15:14:55.422Z,26.07
2023-03-05T15:17:26.568Z,26.23
2023-03-05T15:19:54.962Z,26.50
2023-03-05T15:22:23.554Z,26.20
2023-03-05T15:24:51.785Z,26.75
2023-03-05T15:27:21.742Z,26.70
2023-03-05T15:29:49.911Z,26.81
2023-03-05T15:32:18.483Z,26.91
2023-03-05T15:34:46.871Z,27.14
2023-03-05T15:37:15.409Z,27.40
2023-03-05T15:39:43.914Z,27.78
2023-03-05T15:42:12.548Z,28.56
2023-03-05T15:44:42.556Z,29.56
2023-03-05T15:47:11.464Z,30.24
2023-03-05T15:49:39.864Z,31.40
2023-03-05T15:52:08.526Z,31.88
2023-03-05T15:54:36.955Z,32.69
2023-03-05T15:57:10.504Z,32.39
2023-03-05T15:59:38.876Z,33.24
2023-03-05T16:02:08.934Z,33.89
2023-03-05T16:04:37.235Z,33.96
2023-03-05T16:07:06.416Z,33.62
2023-03-05T16:09:37.632Z,33.23
2023-03-05T16:12:09.156Z,33.36
2023-03-05T16:14:39.528Z,33.23
2023-03-05T16:17:09.799Z,33.07
2023-03-05T16:19:41.904Z,33.28
2023-03-05T16:22:10.577Z,33.58
2023-03-05T16:24:38.940Z,33.46
2023-03-05T16:27:08.009Z,33.33
2023-03-05T16:29:36.340Z,33.20
2023-03-05T16:32:05.843Z,33.15
2023-03-05T16:34:35.665Z,33.08
2023-03-05T16:37:06.996Z,33.01
2023-03-05T16:39:35.331Z,33.04
2023-03-05T16:42:05.030Z,33.06
2023-03-05T16:44:33.556Z,33.25
2023-03-05T16:47:02.573Z,33.15
2023-03-05T16:49:31.382Z,32.98
2023-03-05T16:52:06.187Z,32.98
2023-03-05T16:54:44.813Z,33.11
2023-03-05T16:57:13.838Z,32.91
2023-03-05T16:59:43.749Z,32.87
2023-03-05T17:02:15.292Z,32.82
2023-03-05T17:04:43.939Z,32.87
2023-03-05T17:07:14.112Z,32.61
2023-03-05T17:09:42.603Z,32.67
2023-03-05T17:12:11.548Z,32.80
2023-03-05T17:14:40.115Z,33.03
2023-03-05T17:17:08.779Z,33.13
2023-03-05T17:19:37.140Z,33.23
2023-03-05T17:22:06.071Z,33.71
2023-03-05T17:24:36.500Z,33.82
2023-03-05T17:27:05.218Z,34.24
2023-03-05T17:29:34.420Z,34.30
2023-03-05T17:32:03.316Z,34.50
2023-03-05T17:34:36.712Z,34.65
2023-03-05T17:37:06.796Z,34.86
2023-03-05T17:39:36.447Z,35.06
2023-03-05T17:42:05.122Z,35.25
2023-03-05T17:44:33.575Z,35.53
2023-03-05T17:47:02.157Z,35.46
2023-03-05T17:49:30.762Z,35.23
2023-03-05T17:51:59.345Z,35.41
2023-03-05T17:54:27.672Z,35.24
2023-03-05T17:56:58.083Z,35.14
2023-03-05T17:59:26.864Z,34.96
2023-03-05T18:01:55.491Z,35.20
2023-03-05T18:04:23.930Z,34.85
2023-03-05T18:06:52.525Z,34.87
2023-03-05T18:09:21.273Z,34.83
2023-03-05T18:11:50.273Z,34.95
2023-03-05T18:14:19.977Z,34.91
2023-03-05T18:16:48.858Z,34.83
2023-03-05T18:19:18.828Z,34.82
2023-03-05T18:21:47.746Z,34.97
2023-03-05T18:24:16.117Z,35.52
2023-03-05T18:26:45.635Z,35.12
2023-03-05T18:29:13.967Z,34.82
2023-03-05T18:31:43.983Z,34.64
2023-03-05T18:34:12.403Z,34.83
2023-03-05T18:36:40.947Z,34.86
2023-03-05T18:39:10.911Z,34.57
2023-03-05T18:41:39.824Z,34.66
2023-03-05T18:44:09.068Z,34.35
2023-03-05T18:46:37.568Z,33.91
2023-03-05T18:49:07.463Z,33.70
2023-03-05T18:51:36.441Z,33.79
2023-03-05T18:54:05.069Z,33.84
2023-03-05T18:56:33.633Z,33.91
2023-03-05T18:59:02.095Z,34.05
2023-03-05T19:01:30.695Z,34.30
2023-03-05T19:03:59.049Z,34.52
2023-03-05T19:06:29.095Z,34.46
2023-03-05T19:08:59.488Z,34.59
2023-03-05T19:11:28.177Z,34.62
2023-03-05T19:13:57.139Z,34.75
2023-03-05T19:16:29.505Z,34.66
2023-03-05T19:19:06.442Z,34.97
2023-03-05T19:21:36.502Z,34.92
2023-03-05T19:24:05.013Z,35.15
2023-03-05T19:26:33.856Z,34.99
2023-03-05T19:29:03.810Z,35.28
2023-03-05T19:31:32.560Z,35.53
2023-03-05T19:34:01.376Z,35.41
2023-03-05T19:36:30.402Z,35.25
2023-03-05T19:39:00.351Z,35.49
2023-03-05T19:41:29.558Z,35.77
2023-03-05T19:43:57.899Z,35.71
2023-03-05T19:46:26.690Z,35.73
2023-03-05T19:48:55.320Z,35.73
2023-03-05T19:51:25.714Z,35.72
2023-03-05T19:53:54.214Z,35.86
2023-03-05T19:56:24.216Z,35.96
2023-03-05T19:58:52.631Z,35.99
2023-03-05T20:01:23.368Z,36.06
2023-03-05T20:03:53.054Z,36.31
2023-03-05T20:06:22.288Z,36.30
2023-03-05T20:08:50.916Z,36.16
2023-03-05T20:11:20.768Z,35.96
2023-03-05T20:13:50.856Z,36.23
2023-03-05T20:16:21.226Z,36.22
2023-03-05T20:18:52.894Z,36.60
2023-03-05T20:21:23.365Z,36.70
2023-03-05T20:23:52.157Z,36.51
2023-03-05T20:26:21.155Z,36.69
2023-03-05T20:28:51.294Z,36.43
2023-03-05T20:31:20.849Z,36.39
2023-03-05T20:33:49.440Z,36.47
2023-03-05T20:36:18.388Z,36.27
2023-03-05T20:38:48.037Z,36.56
2023-03-05T20:41:18.824Z,36.25
2023-03-05T20:43:49.144Z,36.40
2023-03-05T20:46:20.879Z,36.20
2023-03-05T20:48:49.706Z,35.26
2023-03-05T20:51:22.670Z,36.10
2023-03-05T20:53:51.264Z,36.42
2023-03-05T20:56:19.934Z,36.56
2023-03-05T20:58:48.408Z,36.66
2023-03-05T21:01:18.503Z,36.01
2023-03-05T21:03:46.962Z,36.62
2023-03-05T21:06:15.635Z,36.36
2023-03-05T21:08:44.847Z,36.52
2023-03-05T21:11:13.979Z,36.74
2023-03-05T21:13:42.177Z,36.60
2023-03-05T21:16:12.420Z,36.56
2023-03-05T21:18:42.084Z,36.36
2023-03-05T21:21:10.662Z,36.44
2023-03-05T21:23:39.086Z,36.42
2023-03-05T21:26:08.045Z,36.55
2023-03-05T21:28:36.467Z,36.41
2023-03-05T21:31:08.943Z,36.18
2023-03-05T21:33:37.442Z,36.30
2023-03-05T21:36:08.212Z,36.07
2023-03-05T21:38:36.694Z,36.35
2023-03-05T21:41:05.934Z,36.01
2023-03-05T21:43:34.514Z,36.25
2023-03-05T21:46:03.701Z,36.24
2023-03-05T21:48:32.676Z,36.04
2023-03-05T21:51:01.504Z,35.90
2023-03-05T21:53:32.293Z,35.80
2023-03-05T21:56:11.072Z,36.04
2023-03-05T21:58:39.324Z,35.84
2023-03-05T22:01:07.875Z,36.08
2023-03-05T22:03:36.185Z,36.38
2023-03-05T22:06:05.074Z,36.30
2023-03-05T22:08:34.774Z,36.13
2023-03-05T22:11:03.600Z,36.05
2023-03-05T22:13:32.174Z,36.25
2023-03-05T22:16:00.773Z,36.14
2023-03-05T22:18:30.229Z,36.14
2023-03-05T22:21:00.035Z,35.82
2023-03-05T22:23:31.492Z,35.40
2023-03-05T22:26:03.514Z,35.34
2023-03-05T22:28:32.754Z,35.48
2023-03-05T22:31:01.530Z,35.33
2023-03-05T22:33:29.929Z,35.43
2023-03-05T22:35:59.334Z,35.37
2023-03-05T22:38:27.641Z,35.68
2023-03-05T22:40:56.294Z,35.34
2023-03-05T22:43:26.065Z,35.26
2023-03-05T22:45:54.891Z,35.74
2023-03-05T22:48:23.171Z,35.61
2023-03-05T22:50:56.411Z,35.15
2023-03-05T22:53:24.690Z,35.64
2023-03-05T22:55:53.360Z,35.54
2023-03-05T22:58:21.631Z,35.73
2023-03-05T23:00:51.462Z,35.34
2023-03-05T23:03:19.807Z,35.50
2023-03-05T23:05:48.306Z,35.30
2023-03-05T23:08:16.630Z,35.36
2023-03-05T23:10:45.175Z,35.37
2023-03-05T23:13:13.376Z,35.07
2023-03-05T23:15:41.946Z,35.35
2023-03-05T23:18:14.283Z,35.40
2023-03-05T23:20:43.311Z,35.72
2023-03-05T23:23:12.547Z,35.74
2023-03-05T23:25:41.194Z,35.74
2023-03-05T23:28:09.384Z,35.40
2023-03-05T23:30:39.673Z,35.62
2023-03-05T23:33:09.729Z,35.39
2023-03-05T23:35:41.207Z,35.46
2023-03-05T23:38:12.303Z,35.44
2023-03-05T23:40:43.201Z,35.47
2023-03-05T23:43:11.774Z,35.43
2023-03-05T23:45:41.970Z,35.33
2023-03-05T23:48:10.455Z,35.45
2023-03-05T23:50:42.047Z,35.10
2023-03-05T23:53:10.124Z,34.18
2023-03-05T23:55:41.850Z,35.25
2023-03-05T23:58:10.550Z,35.36
